Time;durP1;ratioP1;P1;durP2;ratioP2;P2;SDS_P1;SDS_P2;PMS_P1;PMS_P2;Temp;Humidity;BMP_temperature;BMP_pressure;BME280_temperature;BME280_humidity;BME280_pressure;Samples;Min_cycle;Max_cycle;Signal;HPM_P1;HPM_P2
2021/01/12 00:02:11;;;;;;;100.55;41.10;;;;;;;-1.89;80.85;99982.69;4951147;28;20047;-63
2021/01/12 00:04:38;;;;;;;94.70;40.25;;;;;;;-1.90;80.84;99973.25;4942136;28;20047;-63
2021/01/12 00:07:05;;;;;;;102.22;41.53;;;;;;;-1.91;80.75;99981.81;4947869;28;20138;-63
2021/01/12 00:09:31;;;;;;;110.18;44.58;;;;;;;-1.91;80.81;99982.69;4945494;28;20062;-64
2021/01/12 00:11:57;;;;;;;99.63;41.08;;;;;;;-1.93;80.87;99989.53;4950922;28;20043;-63
2021/01/12 00:14:32;;;;;;;95.10;38.92;;;;;;;-1.93;80.69;99998.94;4945074;28;20487;-63
2021/01/12 00:16:59;;;;;;;101.70;39.63;;;;;;;-1.93;80.66;99986.09;4946800;28;20453;-64
2021/01/12 00:19:26;;;;;;;92.75;39.92;;;;;;;-1.93;80.49;99983.53;4944180;28;20126;-63
2021/01/12 00:21:53;;;;;;;108.25;43.25;;;;;;;-1.94;80.52;99989.50;4950954;28;20138;-62
2021/01/12 00:24:20;;;;;;;95.13;39.65;;;;;;;-1.96;80.52;99988.66;4946237;28;20047;-64
2021/01/12 00:26:46;;;;;;;82.70;38.22;;;;;;;-1.97;80.22;99977.50;4943941;28;20039;-64
2021/01/12 00:29:13;;;;;;;93.20;41.35;;;;;;;-1.97;80.44;99966.38;4953409;28;20090;-62
2021/01/12 00:31:39;;;;;;;87.40;38.67;;;;;;;-1.98;80.28;99973.22;4952633;28;20515;-64
2021/01/12 00:34:06;;;;;;;90.68;36.97;;;;;;;-2.00;80.36;99968.94;4952785;28;20043;-63
2021/01/12 00:36:33;;;;;;;87.25;39.10;;;;;;;-2.01;80.19;99964.63;4950943;28;20047;-64
2021/01/12 00:39:00;;;;;;;87.68;37.97;;;;;;;-2.01;80.27;99964.63;4952075;28;20098;-63
2021/01/12 00:41:26;;;;;;;92.28;38.10;;;;;;;-2.03;80.18;99974.03;4951796;28;20134;-63
2021/01/12 00:43:52;;;;;;;89.50;38.67;;;;;;;-2.01;80.11;99974.91;4952785;28;20491;-64
2021/01/12 00:46:18;;;;;;;85.80;35.70;;;;;;;-2.00;80.06;99953.50;4953026;28;20047;-63
2021/01/12 00:48:44;;;;;;;84.25;35.45;;;;;;;-2.02;80.40;99947.50;4952616;28;20043;-65
2021/01/12 00:51:10;;;;;;;85.85;37.80;;;;;;;-2.05;80.47;99948.34;4952119;28;20058;-63
2021/01/12 00:53:36;;;;;;;77.20;35.17;;;;;;;-2.06;80.01;99940.63;4953050;28;20054;-63
2021/01/12 00:56:12;;;;;;;82.15;36.22;;;;;;;-2.09;80.27;99928.59;4952179;28;20066;-63
2021/01/12 00:58:38;;;;;;;66.35;31.13;;;;;;;-2.09;80.25;99918.31;4952572;28;20169;-63
2021/01/12 01:01:04;;;;;;;86.53;35.88;;;;;;;-2.09;80.10;99927.75;4952429;28;20141;-63
2021/01/12 01:03:30;;;;;;;86.03;34.95;;;;;;;-2.11;80.23;99924.31;4952094;28;20086;-64
2021/01/12 01:05:56;;;;;;;79.55;32.72;;;;;;;-2.12;80.22;99917.44;4956051;28;20129;-63
2021/01/12 01:08:22;;;;;;;78.13;33.10;;;;;;;-2.14;80.43;99922.56;4953122;28;20053;-63
2021/01/12 01:10:49;;;;;;;81.07;35.75;;;;;;;-2.17;80.10;99913.16;4952222;28;20133;-63
2021/01/12 01:13:16;;;;;;;86.88;37.28;;;;;;;-2.19;80.04;99909.69;4952534;28;20058;-64
2021/01/12 01:15:42;;;;;;;85.72;36.33;;;;;;;-2.22;80.04;99904.56;4952299;28;20098;-63
2021/01/12 01:18:08;;;;;;;77.63;34.97;;;;;;;-2.25;80.18;99899.41;4952369;28;20058;-63
2021/01/12 01:20:34;;;;;;;73.15;35.20;;;;;;;-2.26;80.12;99895.13;4952130;28;20061;-63
2021/01/12 01:23:00;;;;;;;78.72;35.80;;;;;;;-2.26;80.14;99900.25;4952816;28;20460;-63
2021/01/12 01:25:26;;;;;;;82.97;35.35;;;;;;;-2.26;80.20;99897.69;4953437;28;20109;-62
2021/01/12 01:27:53;;;;;;;84.50;35.63;;;;;;;-2.27;80.10;99901.09;4953210;28;20047;-63
2021/01/12 01:30:21;;;;;;;82.07;37.55;;;;;;;-2.31;79.91;99891.63;4953336;28;20039;-63
2021/01/12 01:32:48;;;;;;;83.28;35.75;;;;;;;-2.32;80.05;99887.34;4953502;28;20470;-63
2021/01/12 01:35:14;;;;;;;78.45;30.23;;;;;;;-2.33;80.32;99870.22;4953155;28;20055;-63
2021/01/12 01:37:40;;;;;;;80.72;35.05;;;;;;;-2.33;80.44;99875.34;4952961;28;20055;-64
2021/01/12 01:40:07;;;;;;;80.75;33.92;;;;;;;-2.32;80.22;99866.81;4948656;28;20135;-64
2021/01/12 01:42:35;;;;;;;77.32;35.60;;;;;;;-2.35;80.07;99868.50;4953006;28;20047;-63
2021/01/12 01:45:07;;;;;;;81.10;35.15;;;;;;;-2.35;80.18;99861.66;4953144;28;20083;-63
2021/01/12 01:47:35;;;;;;;80.85;35.83;;;;;;;-2.38;80.12;99846.22;4953647;28;20130;-63
2021/01/12 01:50:02;;;;;;;86.85;37.20;;;;;;;-2.38;80.11;99856.50;4953095;28;20051;-63
2021/01/12 01:52:29;;;;;;;76.50;31.75;;;;;;;-2.41;80.30;99840.22;4952698;28;20426;-64
2021/01/12 01:54:58;;;;;;;82.40;34.63;;;;;;;-2.43;80.29;99827.38;4953337;28;20055;-63
2021/01/12 01:57:24;;;;;;;77.07;34.15;;;;;;;-2.43;80.19;99819.66;4951581;28;20132;-64
2021/01/12 01:59:51;;;;;;;83.65;34.42;;;;;;;-2.44;80.21;99829.94;4953227;28;20074;-63
2021/01/12 02:02:17;;;;;;;82.20;36.78;;;;;;;-2.43;80.34;99824.81;4953127;28;20503;-64
2021/01/12 02:04:46;;;;;;;94.93;36.08;;;;;;;-2.47;80.34;99817.94;4952854;28;20051;-63
2021/01/12 02:07:14;;;;;;;59.92;23.05;;;;;;;-2.48;80.52;99818.78;4952862;28;20102;-64
2021/01/12 02:09:47;;;;;;;82.68;35.45;;;;;;;-2.50;80.45;99807.63;4947397;28;20047;-64
2021/01/12 02:12:21;;;;;;;93.65;38.65;;;;;;;-2.50;80.55;99802.50;4956802;28;20061;-64
2021/01/12 02:14:48;;;;;;;87.85;37.67;;;;;;;-2.49;80.41;99804.25;4956322;28;20482;-64
2021/01/12 02:17:14;;;;;;;86.18;35.55;;;;;;;-2.49;80.55;99806.81;4956845;28;20149;-64
2021/01/12 02:19:40;;;;;;;83.53;36.83;;;;;;;-2.49;80.43;99791.41;4956241;28;20102;-64
2021/01/12 02:22:08;;;;;;;88.40;36.85;;;;;;;-2.49;80.38;99788.84;4956538;28;20146;-64
2021/01/12 02:24:36;;;;;;;89.05;37.05;;;;;;;-2.50;80.45;99784.53;4956193;28;20047;-64
2021/01/12 02:27:03;;;;;;;75.88;32.72;;;;;;;-2.50;80.26;99761.44;4956564;28;20044;-64
2021/01/12 02:29:30;;;;;;;44.80;22.05;;;;;;;-2.51;80.52;99762.28;4956189;28;20040;-64
2021/01/12 02:31:56;;;;;;;86.43;37.08;;;;;;;-2.49;80.44;99755.47;4956513;28;20049;-65
2021/01/12 02:34:25;;;;;;;90.03;37.55;;;;;;;-2.48;80.33;99749.50;4956240;28;20047;-65
2021/01/12 02:36:52;;;;;;;75.25;33.63;;;;;;;-2.49;80.40;99755.47;4955785;28;20051;-65
2021/01/12 02:39:18;;;;;;;84.75;35.47;;;;;;;-2.46;80.29;99755.50;4956051;28;20070;-65
2021/01/12 02:41:45;;;;;;;83.78;34.97;;;;;;;-2.45;80.32;99759.78;4956633;28;20123;-65
2021/01/12 02:44:21;;;;;;;72.07;34.53;;;;;;;-2.48;80.54;99746.91;4956116;28;20062;-64
2021/01/12 02:46:47;;;;;;;78.75;34.75;;;;;;;-2.48;80.06;99734.94;4955983;28;20403;-65
2021/01/12 02:49:13;;;;;;;85.65;36.70;;;;;;;-2.47;80.12;99735.81;4955731;28;20077;-65
2021/01/12 02:51:42;;;;;;;80.75;35.05;;;;;;;-2.46;80.07;99717.00;4955939;28;20047;-65
2021/01/12 02:54:08;;;;;;;86.47;36.63;;;;;;;-2.46;80.25;99702.44;4954715;28;20053;-65
2021/01/12 02:56:34;;;;;;;80.80;34.63;;;;;;;-2.46;80.17;99699.03;4955447;28;20572;-65
2021/01/12 02:59:01;;;;;;;85.50;36.00;;;;;;;-2.47;80.16;99697.31;4955603;28;20664;-64
2021/01/12 03:01:28;;;;;;;59.97;26.80;;;;;;;-2.47;80.18;99697.31;4954786;28;20582;-64
2021/01/12 03:03:54;;;;;;;97.95;39.33;;;;;;;-2.48;80.23;99700.72;4955391;28;20057;-65
2021/01/12 03:06:20;;;;;;;81.70;35.65;;;;;;;-2.48;80.04;99695.59;4951546;28;20054;-65
2021/01/12 03:08:46;;;;;;;81.55;34.15;;;;;;;-2.47;79.93;99682.75;4955633;28;20423;-65
2021/01/12 03:11:12;;;;;;;88.25;36.75;;;;;;;-2.47;79.92;99681.91;4955407;28;20486;-66
2021/01/12 03:13:38;;;;;;;81.75;32.60;;;;;;;-2.47;80.09;99674.22;4956408;28;20043;-65
2021/01/12 03:16:05;;;;;;;87.75;38.17;;;;;;;-2.49;80.12;99673.34;4953723;28;20069;-64
2021/01/12 03:18:32;;;;;;;77.53;36.38;;;;;;;-2.49;80.13;99684.47;4955365;28;20051;-65
2021/01/12 03:20:58;;;;;;;85.15;38.60;;;;;;;-2.49;79.88;99681.03;4952439;28;20609;-65
2021/01/12 03:23:25;;;;;;;101.65;39.03;;;;;;;-2.48;79.89;99680.19;4953870;28;20426;-65
2021/01/12 03:25:51;;;;;;;95.32;36.95;;;;;;;-2.45;79.97;99667.38;4955215;28;20055;-65
2021/01/12 03:28:17;;;;;;;80.90;36.95;;;;;;;-2.46;80.11;99665.66;4954851;28;20062;-65
2021/01/12 03:30:43;;;;;;;81.55;35.17;;;;;;;-2.43;80.13;99651.97;4955687;28;20098;-65
2021/01/12 03:33:10;;;;;;;89.60;37.30;;;;;;;-2.43;80.12;99631.44;4955783;28;20326;-66
2021/01/12 03:35:36;;;;;;;77.38;32.38;;;;;;;-2.42;80.31;99628.03;4954879;28;20122;-65
2021/01/12 03:38:02;;;;;;;80.60;34.83;;;;;;;-2.41;80.21;99633.16;4954611;28;20048;-66
2021/01/12 03:40:28;;;;;;;81.57;35.35;;;;;;;-2.42;80.07;99638.28;4954887;28;20043;-65
2021/01/12 03:42:54;;;;;;;79.32;35.00;;;;;;;-2.40;79.98;99642.56;4955169;28;20536;-65
2021/01/12 03:45:20;;;;;;;90.35;39.40;;;;;;;-2.41;80.07;99630.59;4954857;28;20051;-65
2021/01/12 03:47:46;;;;;;;93.93;42.30;;;;;;;-2.41;79.81;99620.31;4954818;28;20047;-66
2021/01/12 03:50:15;;;;;;;86.55;36.85;;;;;;;-2.40;80.07;99606.63;4954879;28;20047;-65
2021/01/12 03:52:41;;;;;;;83.65;38.30;;;;;;;-2.37;79.75;99604.06;4947082;28;20039;-65
2021/01/12 03:55:08;;;;;;;83.05;34.97;;;;;;;-2.38;79.95;99599.78;4954789;28;20050;-65
2021/01/12 03:57:34;;;;;;;64.15;29.83;;;;;;;-2.36;80.13;99607.50;4954196;28;20051;-65
2021/01/12 04:00:00;;;;;;;67.28;25.42;;;;;;;-2.34;79.94;99600.66;4954957;28;20047;-66
2021/01/12 04:02:27;;;;;;;68.68;32.60;;;;;;;-2.35;79.74;99584.41;4954320;28;20051;-66
2021/01/12 04:04:54;;;;;;;87.00;35.83;;;;;;;-2.36;79.77;99574.97;4957531;28;20094;-65
2021/01/12 04:07:21;;;;;;;73.00;33.90;;;;;;;-2.35;79.81;99574.13;4954757;28;20121;-65
2021/01/12 04:09:49;;;;;;;72.47;31.95;;;;;;;-2.38;79.56;99563.84;4954308;28;20054;-65
2021/01/12 04:12:15;;;;;;;74.22;30.65;;;;;;;-2.37;79.64;99560.44;4954061;28;20561;-65
2021/01/12 04:14:41;;;;;;;71.28;31.73;;;;;;;-2.38;79.62;99566.41;4953970;28;20095;-65
2021/01/12 04:17:07;;;;;;;81.55;35.60;;;;;;;-2.38;79.58;99563.00;4954383;28;20054;-65
2021/01/12 04:19:33;;;;;;;78.13;32.42;;;;;;;-2.38;79.54;99558.72;4954231;28;20078;-65
2021/01/12 04:21:59;;;;;;;78.68;29.73;;;;;;;-2.36;79.59;99551.03;4951700;28;20096;-64
2021/01/12 04:24:26;;;;;;;89.28;37.90;;;;;;;-2.36;79.46;99553.59;4952030;28;20054;-64
2021/01/12 04:26:52;;;;;;;82.07;34.83;;;;;;;-2.37;79.03;99549.31;4950738;28;20045;-64
2021/01/12 04:29:18;;;;;;;63.65;29.60;;;;;;;-2.35;79.44;99537.34;4950373;28;20507;-63
2021/01/12 04:31:44;;;;;;;77.95;30.95;;;;;;;-2.32;79.72;99527.91;4953545;28;20062;-64
2021/01/12 04:34:10;;;;;;;63.75;28.35;;;;;;;-2.33;79.43;99526.22;4953835;28;20051;-63
2021/01/12 04:36:36;;;;;;;83.88;34.33;;;;;;;-2.29;79.72;99527.97;4949390;28;20055;-65
2021/01/12 04:39:03;;;;;;;78.82;32.33;;;;;;;-2.30;79.30;99531.34;4948807;28;20415;-65
2021/01/12 04:41:30;;;;;;;69.95;32.13;;;;;;;-2.30;79.25;99541.63;4950092;28;20043;-65
2021/01/12 04:43:56;;;;;;;75.18;34.47;;;;;;;-2.27;79.26;99545.94;4949939;28;20039;-63
2021/01/12 04:46:23;;;;;;;50.95;23.67;;;;;;;-2.27;79.09;99531.38;4951033;28;20058;-65
2021/01/12 04:48:49;;;;;;;74.03;31.77;;;;;;;-2.26;79.33;99527.97;4949563;28;20491;-64
2021/01/12 04:51:15;;;;;;;67.30;30.17;;;;;;;-2.25;79.08;99519.41;4947047;28;20043;-65
2021/01/12 04:53:46;;;;;;;64.35;29.17;;;;;;;-2.24;79.43;99517.69;4944758;28;20051;-64
2021/01/12 04:56:24;;;;;;;71.70;28.17;;;;;;;-2.22;79.30;99511.69;4951101;28;20051;-66
2021/01/12 04:58:52;;;;;;;64.63;29.58;;;;;;;-2.21;79.43;99513.41;4946382;28;20098;-65
2021/01/12 05:01:19;;;;;;;72.45;28.92;;;;;;;-2.20;79.48;99514.25;4952355;28;20047;-65
2021/01/12 05:03:47;;;;;;;76.32;31.58;;;;;;;-2.21;79.56;99521.09;4947574;28;20070;-65
2021/01/12 05:06:15;;;;;;;66.10;28.00;;;;;;;-2.20;79.45;99519.41;4949635;28;20047;-66
2021/01/12 05:08:42;;;;;;;72.80;29.15;;;;;;;-2.18;79.44;99521.09;4953114;28;20051;-64
2021/01/12 05:11:09;;;;;;;67.18;32.13;;;;;;;-2.17;79.29;99516.81;4946475;28;20130;-66
2021/01/12 05:13:36;;;;;;;70.50;27.08;;;;;;;-2.18;79.38;99513.41;4944927;28;20039;-65
2021/01/12 05:16:08;;;;;;;68.18;30.75;;;;;;;-2.20;79.12;99512.53;4949975;28;20055;-67
2021/01/12 05:18:37;;;;;;;56.88;27.73;;;;;;;-2.18;79.32;99518.53;4946705;28;20061;-65
2021/01/12 05:21:06;;;;;;;68.10;26.70;;;;;;;-2.18;79.22;99515.13;4947234;28;20055;-65
2021/01/12 05:23:47;;;;;;;61.35;28.52;;;;;;;-2.21;79.15;99517.69;4951718;28;20094;-65
2021/01/12 05:26:17;;;;;;;57.33;26.67;;;;;;;-2.19;79.08;99506.56;4948063;28;20055;-64
2021/01/12 05:28:43;;;;;;;74.20;29.08;;;;;;;-2.16;79.35;99493.72;4947641;28;20099;-64
2021/01/12 05:31:13;;;;;;;61.75;29.00;;;;;;;-2.12;79.39;99494.56;4946833;28;20507;-64
2021/01/12 05:33:40;;;;;;;67.90;29.35;;;;;;;-2.12;79.27;99496.28;4949026;28;20138;-65
2021/01/12 05:36:07;;;;;;;61.88;28.48;;;;;;;-2.13;79.31;99492.84;4948977;28;20059;-65
2021/01/12 05:38:34;;;;;;;63.72;26.85;;;;;;;-2.11;79.27;99488.56;4948719;28;20064;-64
2021/01/12 05:41:02;;;;;;;64.20;29.25;;;;;;;-2.11;79.40;99490.28;4949996;28;20046;-65
2021/01/12 05:43:35;;;;;;;63.13;25.00;;;;;;;-2.11;79.45;99483.44;4952952;28;20101;-65
2021/01/12 05:46:10;;;;;;;71.55;27.15;;;;;;;-2.09;79.48;99480.88;4952632;28;20039;-65
2021/01/12 05:48:38;;;;;;;51.97;24.25;;;;;;;-2.07;79.43;99471.47;4953639;28;20515;-65
2021/01/12 05:51:06;;;;;;;60.03;26.55;;;;;;;-2.06;79.47;99468.91;4955532;28;20055;-64
2021/01/12 05:54:04;;;;;;;57.20;25.52;;;;;;;-2.10;79.57;99456.91;4950574;28;20150;-65
2021/01/12 05:56:32;;;;;;;67.55;26.23;;;;;;;-2.10;79.53;99449.19;4943187;28;20091;-65
2021/01/12 05:59:00;;;;;;;67.15;25.10;;;;;;;-2.07;79.38;99446.66;4952091;28;20063;-64
2021/01/12 06:01:54;;;;;;;60.70;26.52;;;;;;;-2.07;79.59;99451.78;4952783;28;20054;-64
2021/01/12 06:04:21;;;;;;;52.38;24.48;;;;;;;-2.03;79.50;99440.66;4951683;28;20138;-64
2021/01/12 06:06:48;;;;;;;63.60;26.77;;;;;;;-2.04;79.51;99441.50;4950864;28;20082;-64
2021/01/12 06:09:16;;;;;;;62.60;28.30;;;;;;;-2.05;79.40;99432.09;4950722;28;20463;-63
2021/01/12 06:11:44;;;;;;;53.50;22.38;;;;;;;-2.05;79.32;99437.25;4951126;28;20043;-63
2021/01/12 06:14:12;;;;;;;46.40;22.58;;;;;;;-2.02;79.58;99433.81;4951270;28;20051;-63
2021/01/12 06:16:40;;;;;;;60.65;25.02;;;;;;;-2.03;79.32;99442.38;4951119;28;20491;-63
2021/01/12 06:19:11;;;;;;;54.20;23.95;;;;;;;-2.04;79.24;99436.38;4953713;28;20055;-63
2021/01/12 06:22:03;;;;;;;52.15;24.77;;;;;;;-2.01;79.21;99440.66;4953223;28;20504;-63
2021/01/12 06:24:38;;;;;;;50.33;22.20;;;;;;;-2.03;79.23;99447.50;4946524;28;20158;-63
2021/01/12 06:27:06;;;;;;;61.65;25.10;;;;;;;-2.05;78.94;99456.94;4948315;28;20084;-63
2021/01/12 06:29:33;;;;;;;57.95;24.80;;;;;;;-2.00;79.12;99444.94;4953222;28;20039;-64
2021/01/12 06:31:59;;;;;;;59.88;26.80;;;;;;;-1.99;79.19;99438.94;4949076;28;20053;-64
2021/01/12 06:34:26;;;;;;;54.38;23.95;;;;;;;-1.99;78.90;99447.50;4951367;28;20126;-63
2021/01/12 06:36:55;;;;;;;57.55;26.00;;;;;;;-1.98;79.38;99427.81;4951241;28;20510;-64
2021/01/12 06:39:23;;;;;;;52.53;23.58;;;;;;;-1.96;79.21;99433.78;4953415;28;20459;-64
2021/01/12 06:41:50;;;;;;;56.30;24.48;;;;;;;-1.97;78.92;99427.81;4954123;28;20516;-63
2021/01/12 06:44:22;;;;;;;78.55;27.45;;;;;;;-1.95;79.16;99425.22;4950967;28;20043;-63
2021/01/12 06:46:53;;;;;;;56.55;24.30;;;;;;;-1.93;78.75;99420.94;4948191;28;20062;-64
2021/01/12 06:49:22;;;;;;;65.85;24.90;;;;;;;-1.87;79.19;99428.66;4953880;28;20062;-64
2021/01/12 06:51:58;;;;;;;52.22;22.08;;;;;;;-1.87;79.11;99421.81;4945943;28;20062;-63
2021/01/12 06:54:34;;;;;;;51.22;21.65;;;;;;;-1.84;79.45;99408.09;4944103;28;20043;-63
2021/01/12 06:57:02;;;;;;;55.08;22.15;;;;;;;-1.83;79.29;99412.38;4950322;28;20495;-64
2021/01/12 06:59:42;;;;;;;51.95;22.77;;;;;;;-1.82;79.21;99410.66;4950952;28;20098;-63
2021/01/12 07:02:15;;;;;;;56.58;24.90;;;;;;;-1.79;79.30;99401.22;4953672;28;20130;-63
2021/01/12 07:04:41;;;;;;;55.65;22.50;;;;;;;-1.77;78.96;99398.66;4941420;28;20114;-64
2021/01/12 07:07:13;;;;;;;41.70;20.58;;;;;;;-1.77;79.41;99404.66;4952202;28;20240;-64
2021/01/12 07:09:45;;;;;;;47.65;20.88;;;;;;;-1.74;79.09;99406.34;4947029;28;20126;-65
2021/01/12 07:12:13;;;;;;;53.47;22.50;;;;;;;-1.73;79.03;99408.91;4941319;28;20567;-62
2021/01/12 07:14:45;;;;;;;54.65;22.48;;;;;;;-1.73;79.02;99390.06;4953445;28;20047;-63
2021/01/12 07:17:12;;;;;;;54.67;23.38;;;;;;;-1.68;78.98;99390.91;4948011;28;20059;-63
2021/01/12 07:19:38;;;;;;;50.55;21.00;;;;;;;-1.68;79.04;99399.47;4950567;28;20078;-63
2021/01/12 07:22:16;;;;;;;51.65;20.85;;;;;;;-1.66;79.12;99389.22;4946757;28;20055;-64
2021/01/12 07:24:43;;;;;;;38.88;20.38;;;;;;;-1.62;79.19;99401.19;4942951;28;20063;-64
2021/01/12 07:27:13;;;;;;;48.28;22.48;;;;;;;-1.60;78.94;99387.47;4945018;28;20054;-63
2021/01/12 07:29:49;;;;;;;61.58;25.52;;;;;;;-1.61;78.89;99379.78;4949862;28;20090;-63
2021/01/12 07:32:30;;;;;;;37.88;18.42;;;;;;;-1.61;79.03;99375.47;4947885;28;20039;-63
2021/01/12 07:35:00;;;;;;;43.72;19.42;;;;;;;-1.58;79.16;99370.31;4946852;28;20050;-63
2021/01/12 07:37:28;;;;;;;43.63;20.35;;;;;;;-1.58;78.89;99367.75;4948729;28;20051;-63
2021/01/12 07:39:55;;;;;;;41.75;20.58;;;;;;;-1.60;78.64;99364.34;4950326;28;20083;-64
2021/01/12 07:42:21;;;;;;;50.22;22.02;;;;;;;-1.56;78.69;99368.59;4946968;28;20059;-65
2021/01/12 07:44:47;;;;;;;46.63;21.95;;;;;;;-1.58;78.73;99378.03;4950213;28;20052;-64
2021/01/12 07:47:14;;;;;;;43.92;21.80;;;;;;;-1.55;78.74;99354.91;4949478;28;20043;-64
2021/01/12 07:49:41;;;;;;;63.58;27.80;;;;;;;-1.54;78.76;99361.75;4950138;28;20057;-65
2021/01/12 07:52:08;;;;;;;83.10;33.00;;;;;;;-1.52;78.75;99355.75;4947443;28;20047;-64
2021/01/12 07:54:35;;;;;;;68.78;29.77;;;;;;;-1.55;78.49;99352.31;4946708;28;20110;-64
2021/01/12 07:57:02;;;;;;;71.13;28.88;;;;;;;-1.54;78.52;99350.59;4945743;28;20097;-64
2021/01/12 07:59:29;;;;;;;56.00;24.20;;;;;;;-1.52;78.27;99348.03;4942796;28;20066;-64
2021/01/12 08:01:55;;;;;;;56.63;23.38;;;;;;;-1.51;78.46;99349.75;4943984;28;20048;-64
2021/01/12 08:04:21;;;;;;;42.38;18.75;;;;;;;-1.47;78.35;99351.44;4950200;28;20050;-62
2021/01/12 08:06:54;;;;;;;49.85;23.98;;;;;;;-1.45;78.22;99339.44;4949465;28;20094;-65
2021/01/12 08:09:22;;;;;;;69.78;31.05;;;;;;;-1.41;78.22;99343.72;4951681;28;20043;-63
2021/01/12 08:11:50;;;;;;;61.85;26.42;;;;;;;-1.39;77.93;99345.41;4946485;28;20126;-64
2021/01/12 08:14:22;;;;;;;59.97;27.65;;;;;;;-1.35;77.87;99335.97;4944314;28;20399;-63
2021/01/12 08:16:49;;;;;;;59.13;26.80;;;;;;;-1.31;78.04;99332.50;4943831;28;20048;-63
2021/01/12 08:19:20;;;;;;;49.80;20.95;;;;;;;-1.30;77.76;99331.63;4947084;28;20065;-64
2021/01/12 08:21:46;;;;;;;47.35;22.15;;;;;;;-1.28;77.88;99335.91;4949202;28;20055;-63
2021/01/12 08:24:12;;;;;;;48.08;22.23;;;;;;;-1.24;77.56;99334.19;4952322;28;20057;-63
2021/01/12 08:26:44;;;;;;;41.88;20.30;;;;;;;-1.21;77.56;99330.75;4947682;28;20055;-63
2021/01/12 08:29:11;;;;;;;48.50;21.17;;;;;;;-1.14;77.68;99329.84;4945468;28;20130;-63
2021/01/12 08:31:44;;;;;;;43.63;19.85;;;;;;;-1.10;77.89;99323.81;4952732;28;20051;-63
2021/01/12 08:34:14;;;;;;;49.70;21.75;;;;;;;-1.08;77.66;99340.94;4952478;28;20407;-63
2021/01/12 08:36:40;;;;;;;46.30;21.08;;;;;;;-1.08;77.40;99324.66;4953184;28;20505;-63
2021/01/12 08:39:07;;;;;;;48.78;21.83;;;;;;;-1.05;77.26;99330.63;4950557;28;20486;-63
2021/01/12 08:41:34;;;;;;;59.33;27.23;;;;;;;-1.02;77.39;99325.50;4951214;28;20047;-63
2021/01/12 08:44:01;;;;;;;69.22;31.00;;;;;;;-1.05;77.38;99312.63;4948474;28;20043;-64
2021/01/12 08:46:29;;;;;;;68.18;27.48;;;;;;;-1.00;77.30;99320.34;4951259;28;20051;-63
2021/01/12 08:48:55;;;;;;;57.33;25.17;;;;;;;-0.95;77.10;99301.41;4948819;28;20054;-64
2021/01/12 08:51:24;;;;;;;40.25;18.55;;;;;;;-0.91;77.10;99302.25;4950122;28;20055;-65
2021/01/12 08:53:55;;;;;;;47.55;22.10;;;;;;;-0.86;76.76;99289.34;4949442;28;20040;-64
2021/01/12 08:56:22;;;;;;;47.42;19.55;;;;;;;-0.80;76.85;99285.03;4949262;28;20066;-64
2021/01/12 08:58:49;;;;;;;45.55;20.05;;;;;;;-0.75;77.05;99287.56;4949827;28;20055;-64
2021/01/12 09:01:26;;;;;;;41.92;19.42;;;;;;;-0.68;77.02;99299.50;4948673;28;20066;-65
2021/01/12 09:04:01;;;;;;;32.88;18.35;;;;;;;-0.73;76.52;99293.53;4943573;28;20047;-65
2021/01/12 09:06:28;;;;;;;45.70;20.15;;;;;;;-0.66;76.74;99295.19;4946531;28;20051;-64
2021/01/12 09:08:54;;;;;;;43.63;19.35;;;;;;;-0.57;76.34;99287.41;4950487;28;20039;-65
2021/01/12 09:11:20;;;;;;;37.72;17.60;;;;;;;-0.53;76.47;99281.34;4952342;28;20567;-64
2021/01/12 09:13:46;;;;;;;41.65;20.63;;;;;;;-0.46;76.25;99270.13;4943725;28;20044;-65
2021/01/12 09:16:18;;;;;;;35.38;18.00;;;;;;;-0.33;76.33;99276.00;4947617;28;20159;-65
2021/01/12 09:18:44;;;;;;;38.75;20.23;;;;;;;-0.22;76.00;99273.31;4943706;28;20060;-65
2021/01/12 09:21:12;;;;;;;31.73;15.40;;;;;;;-0.12;76.40;99280.09;4946467;28;20055;-64
2021/01/12 09:23:38;;;;;;;36.67;17.40;;;;;;;-0.11;76.03;99272.34;4947754;28;20110;-66
2021/01/12 09:26:05;;;;;;;38.00;17.90;;;;;;;-0.07;76.20;99262.84;4952439;28;20094;-65
2021/01/12 09:28:33;;;;;;;34.80;17.92;;;;;;;-0.06;76.03;99261.97;4950309;28;20043;-65
2021/01/12 09:31:04;;;;;;;39.25;18.33;;;;;;;0.02;75.86;99256.75;4953148;28;20127;-65
2021/01/12 09:33:30;;;;;;;38.30;18.00;;;;;;;0.12;75.69;99269.50;4952876;28;20057;-65
2021/01/12 09:36:07;;;;;;;33.20;17.75;;;;;;;0.23;75.83;99252.19;4950772;28;20525;-65
2021/01/12 09:38:39;;;;;;;37.70;17.13;;;;;;;0.48;75.47;99249.28;4949937;28;20101;-65
2021/01/12 09:41:10;;;;;;;29.42;14.98;;;;;;;0.61;74.71;99250.81;4952009;28;20047;-65
2021/01/12 09:43:37;;;;;;;49.17;23.60;;;;;;;0.64;74.93;99237.91;4948734;28;20039;-65
2021/01/12 09:46:03;;;;;;;49.47;21.70;;;;;;;0.64;74.84;99242.19;4951321;28;20122;-67
2021/01/12 09:48:29;;;;;;;47.47;22.33;;;;;;;0.60;74.47;99236.22;4945151;28;20413;-66
2021/01/12 09:50:56;;;;;;;65.40;28.90;;;;;;;0.63;75.20;99230.19;4946444;28;20115;-65
2021/01/12 09:53:23;;;;;;;44.17;21.50;;;;;;;0.64;74.60;99222.41;4947364;28;20058;-64
2021/01/12 09:55:50;;;;;;;42.35;18.77;;;;;;;0.65;74.85;99218.09;4943928;28;20053;-64
2021/01/12 09:58:16;;;;;;;50.22;20.55;;;;;;;0.62;75.05;99213.81;4949042;28;20356;-67
2021/01/12 10:00:42;;;;;;;71.97;30.52;;;;;;;0.54;74.82;99220.84;4950129;28;20053;-65
2021/01/12 10:03:08;;;;;;;57.47;25.50;;;;;;;0.50;74.61;99224.34;4947389;28;20043;-65
2021/01/12 10:05:36;;;;;;;55.75;24.65;;;;;;;0.50;74.57;99214.03;4943282;28;20058;-64
2021/01/12 10:08:03;;;;;;;40.50;21.30;;;;;;;0.48;74.26;99205.44;4949404;28;20053;-65
2021/01/12 10:10:29;;;;;;;47.45;21.35;;;;;;;0.52;74.43;99220.00;4949563;28;20073;-65
2021/01/12 10:12:56;;;;;;;42.05;20.48;;;;;;;0.53;74.06;99199.34;4950453;28;20177;-64
2021/01/12 10:15:22;;;;;;;37.63;19.70;;;;;;;0.58;74.05;99188.97;4942356;28;20130;-64
2021/01/12 10:17:48;;;;;;;44.33;21.48;;;;;;;0.69;74.30;99181.06;4945507;28;20039;-67
2021/01/12 10:20:14;;;;;;;41.78;18.33;;;;;;;0.81;74.11;99189.44;4951951;28;20166;-67
2021/01/12 10:22:40;;;;;;;36.85;18.15;;;;;;;0.85;74.21;99182.53;4947326;28;20311;-66
2021/01/12 10:25:07;;;;;;;56.30;24.60;;;;;;;0.86;73.87;99181.66;4948417;28;20050;-65
2021/01/12 10:27:34;;;;;;;41.78;19.00;;;;;;;0.89;73.48;99187.63;4946645;28;20045;-65
2021/01/12 10:30:02;;;;;;;42.03;19.92;;;;;;;0.81;73.58;99162.81;4950639;28;20081;-66
2021/01/12 10:32:29;;;;;;;38.95;19.65;;;;;;;0.78;73.46;99163.72;4951720;28;20134;-66
2021/01/12 10:34:55;;;;;;;63.47;25.45;;;;;;;0.73;73.44;99160.34;4953387;28;20051;-66
2021/01/12 10:37:21;;;;;;;59.45;23.38;;;;;;;0.74;73.73;99150.88;4953225;28;20363;-66
2021/01/12 10:39:48;;;;;;;42.35;19.52;;;;;;;0.70;73.65;99144.09;4953749;28;20047;-66
2021/01/12 10:42:14;;;;;;;44.78;21.20;;;;;;;0.67;73.64;99139.81;4952381;28;20078;-66
2021/01/12 10:44:40;;;;;;;44.35;20.17;;;;;;;0.60;73.67;99145.94;4951645;28;20047;-66
2021/01/12 10:47:08;;;;;;;39.65;21.15;;;;;;;0.58;73.54;99137.38;4951473;28;20178;-66
2021/01/12 10:49:34;;;;;;;48.63;21.67;;;;;;;0.60;73.56;99133.03;4949256;28;20091;-64
2021/01/12 10:52:03;;;;;;;51.08;20.63;;;;;;;0.61;73.81;99134.75;4946056;28;20128;-66
2021/01/12 10:54:30;;;;;;;39.17;17.90;;;;;;;0.66;73.89;99130.38;4949013;28;20055;-66
2021/01/12 10:56:56;;;;;;;56.83;25.00;;;;;;;0.68;73.84;99128.63;4949648;28;20065;-65
2021/01/12 10:59:23;;;;;;;47.60;21.73;;;;;;;0.72;74.15;99119.09;4953878;28;20047;-66
2021/01/12 11:01:54;;;;;;;55.53;23.25;;;;;;;0.71;73.99;99120.84;4949579;28;20087;-66
2021/01/12 11:04:21;;;;;;;50.00;21.65;;;;;;;0.74;74.22;99113.03;4959257;28;20070;-66
2021/01/12 11:06:47;;;;;;;37.45;16.27;;;;;;;0.77;74.74;99105.25;4949773;28;20047;-64
2021/01/12 11:09:13;;;;;;;37.97;19.23;;;;;;;0.78;74.36;99106.94;4948689;28;20058;-66
2021/01/12 11:11:39;;;;;;;55.80;23.33;;;;;;;0.81;74.61;99096.56;4950800;28;20051;-67
2021/01/12 11:14:09;;;;;;;40.58;20.20;;;;;;;0.82;74.29;99098.28;4949782;28;20139;-66
2021/01/12 11:16:37;;;;;;;42.15;19.88;;;;;;;0.85;74.39;99089.66;4950703;28;20078;-66
2021/01/12 11:19:03;;;;;;;43.65;19.52;;;;;;;0.87;74.39;99086.16;4943615;28;20044;-65
2021/01/12 11:21:30;;;;;;;38.90;19.48;;;;;;;0.90;74.27;99086.09;4951900;28;20201;-66
2021/01/12 11:23:56;;;;;;;37.88;17.92;;;;;;;0.94;74.21;99080.88;4951352;28;20396;-66